createdAt,value
2018-07-08T00:09:36.239Z,13.1
2018-07-08T00:19:50.504Z,13
2018-07-08T00:30:05.513Z,12.9
2018-07-08T00:40:20.102Z,12.7
2018-07-08T00:50:35.617Z,12.6
2018-07-08T01:00:49.342Z,12.6
2018-07-08T01:11:03.117Z,12.5
2018-07-08T01:21:18.324Z,12.4
2018-07-08T01:31:33.416Z,12
2018-07-08T01:41:47.231Z,12
2018-07-08T01:52:01.368Z,11.9
2018-07-08T02:02:16.683Z,11.6
2018-07-08T02:12:30.956Z,11.2
2018-07-08T02:22:45.554Z,10.9
2018-07-08T02:32:59.820Z,10.8
2018-07-08T02:43:14.039Z,11.1
2018-07-08T02:53:30.235Z,11.1
2018-07-08T03:03:44.991Z,10.9
2018-07-08T03:13:59.127Z,11.1
2018-07-08T03:24:13.328Z,11.1
2018-07-08T03:34:27.751Z,10.9
2018-07-08T03:44:42.758Z,10.9
2018-07-08T03:54:57.692Z,11
2018-07-08T04:05:11.508Z,10.8
2018-07-08T04:15:25.548Z,10.8
2018-07-08T04:25:39.598Z,11
2018-07-08T04:35:53.839Z,10.9
2018-07-08T04:46:09.210Z,11
2018-07-08T04:56:24.560Z,11.1
2018-07-08T05:06:40.228Z,11.5
2018-07-08T05:16:55.319Z,11.5
2018-07-08T05:27:09.615Z,12.2
2018-07-08T05:37:24.947Z,12.8
2018-07-08T05:47:39.676Z,13.2
2018-07-08T05:57:53.771Z,13.5
2018-07-08T06:08:08.931Z,14.3
2018-07-08T06:18:23.473Z,15
2018-07-08T06:28:39.139Z,16.8
2018-07-08T06:38:53.649Z,17.9
2018-07-08T06:49:08.909Z,18.6
2018-07-08T06:59:22.665Z,18.9
2018-07-08T07:09:37.980Z,18.3
2018-07-08T07:19:53.501Z,19.3
2018-07-08T07:30:08.717Z,20.4
2018-07-08T07:40:22.262Z,21.2
2018-07-08T07:50:37.405Z,20.7
2018-07-08T08:00:51.593Z,21.3
2018-07-08T08:11:05.727Z,21.1
2018-07-08T08:21:20.303Z,22
2018-07-08T08:31:35.276Z,22.1
2018-07-08T08:41:50.163Z,21.9
2018-07-08T08:52:05.404Z,23.3
2018-07-08T09:02:20.787Z,22.7
2018-07-08T09:12:34.781Z,23.3
2018-07-08T09:22:50.354Z,23.3
2018-07-08T09:33:04.463Z,23.4
2018-07-08T09:43:19.490Z,24.1
2018-07-08T09:53:33.437Z,24.9
2018-07-08T10:03:47.781Z,24.9
2018-07-08T10:14:02.456Z,25.3
2018-07-08T10:24:17.244Z,25.7
2018-07-08T10:34:31.908Z,25.7
2018-07-08T10:44:45.793Z,25.5
2018-07-08T10:55:01.188Z,26.2
2018-07-08T11:05:16.276Z,26.8
2018-07-08T11:15:30.931Z,26.2
2018-07-08T11:25:46.294Z,26.1
2018-07-08T11:36:01.101Z,26.8
2018-07-08T11:46:16.116Z,26.5
2018-07-08T11:56:30.813Z,26.9
2018-07-08T12:06:46.178Z,27.1
2018-07-08T12:17:01.540Z,26.7
2018-07-08T12:27:16.289Z,27.1
2018-07-08T12:37:31.243Z,27.2
2018-07-08T12:47:46.498Z,27
2018-07-08T12:58:01.318Z,27.4
2018-07-08T13:08:15.608Z,27.6
2018-07-08T13:18:30.128Z,27.4
2018-07-08T13:28:45.163Z,27.5
2018-07-08T13:38:59.513Z,27.9
2018-07-08T13:49:13.522Z,27.6
2018-07-08T13:59:28.924Z,27.5
2018-07-08T14:09:43.610Z,28.4
2018-07-08T14:19:58.266Z,27.7
2018-07-08T14:30:14.041Z,28.6
2018-07-08T14:40:29.867Z,28.4
2018-07-08T14:50:43.949Z,27.8
2018-07-08T15:00:58.364Z,27.7
2018-07-08T15:11:13.529Z,28
2018-07-08T15:21:28.450Z,27.9
2018-07-08T15:31:43.300Z,27.8
2018-07-08T15:41:58.272Z,28.1
2018-07-08T15:52:12.947Z,27.7
2018-07-08T16:02:27.452Z,27.4
2018-07-08T16:12:41.421Z,27.7
2018-07-08T16:22:55.610Z,26.7
2018-07-08T16:33:10.410Z,27.4
2018-07-08T16:43:25.446Z,27
2018-07-08T16:53:41.059Z,26.6
2018-07-08T17:03:56.917Z,26.6
2018-07-08T17:14:12.045Z,26.5
2018-07-08T17:24:27.507Z,25.8
2018-07-08T17:34:43.541Z,25.8
2018-07-08T17:44:59.097Z,25.6
2018-07-08T17:55:14.930Z,24.7
2018-07-08T18:05:29.442Z,23.7
2018-07-08T18:25:59.545Z,22.9
2018-07-08T18:36:14.928Z,22.7
2018-07-08T18:46:29.505Z,22.5
2018-07-08T18:56:45.221Z,22.2
2018-07-08T19:07:00.611Z,22
2018-07-08T19:17:16.109Z,21.7
2018-07-08T19:27:31.428Z,21.4
2018-07-08T19:37:45.955Z,21
2018-07-08T19:48:01.505Z,20.8
2018-07-08T19:58:15.756Z,20.5
2018-07-08T20:08:30.346Z,20.3
2018-07-08T20:18:45.531Z,19.9
2018-07-08T20:29:00.171Z,19.4
2018-07-08T20:39:15.538Z,19.2
2018-07-08T20:49:29.257Z,18.9
2018-07-08T20:59:43.616Z,18.7
2018-07-08T21:09:58.794Z,18.4
2018-07-08T21:20:12.976Z,18.3
2018-07-08T21:30:27.623Z,18
2018-07-08T21:40:41.600Z,17.8
2018-07-08T21:50:56.084Z,17.8
2018-07-08T22:01:10.739Z,17.4
2018-07-08T22:11:26.144Z,17.2
2018-07-08T22:21:40.588Z,16.9
2018-07-08T22:31:55.988Z,16.6
2018-07-08T22:42:11.547Z,16.4
2018-07-08T22:52:25.944Z,16.2
2018-07-08T23:02:40.413Z,15.9
2018-07-08T23:12:55.556Z,15.6
2018-07-08T23:23:11.071Z,15.4
2018-07-08T23:33:26.097Z,15.3
2018-07-08T23:43:40.978Z,15
2018-07-08T23:53:55.820Z,14.9
